Time;durP1;ratioP1;P1;durP2;ratioP2;P2;SDS_P1;SDS_P2;PMS_P1;PMS_P2;Temp;Humidity;BMP_temperature;BMP_pressure;BME280_temperature;BME280_humidity;BME280_pressure;Samples;Min_cycle;Max_cycle;Signal;HPM_P1;HPM_P2
2022/05/03 00:00:12;;;;;;;12.20;9.68;;;;;;;16.08;55.49;99761.34;4982801;28;20766;-80
2022/05/03 00:02:58;;;;;;;15.73;11.00;;;;;;;16.06;55.92;99757.97;4965828;28;20251;-80
2022/05/03 00:05:35;;;;;;;15.45;10.75;;;;;;;16.04;55.66;99752.78;4994694;28;20045;-79
2022/05/03 00:08:09;;;;;;;15.85;11.63;;;;;;;16.04;55.43;99755.47;4927337;28;20053;-78
2022/05/03 00:11:00;;;;;;;15.95;11.38;;;;;;;16.02;55.64;99746.75;4982138;28;20054;-79
2022/05/03 00:13:29;;;;;;;13.48;10.40;;;;;;;16.01;55.57;99745.09;4971111;28;20144;-79
2022/05/03 00:15:57;;;;;;;18.38;11.88;;;;;;;16.01;55.23;99749.63;4988923;28;20050;-79
2022/05/03 00:18:24;;;;;;;17.33;11.00;;;;;;;16.00;55.44;99747.94;4980730;28;20050;-79
2022/05/03 00:20:50;;;;;;;18.52;12.30;;;;;;;15.99;55.34;99747.13;4983289;28;20435;-80
2022/05/03 00:23:17;;;;;;;14.15;10.60;;;;;;;15.97;55.47;99746.44;4966171;28;20046;-79
2022/05/03 00:25:44;;;;;;;13.93;10.43;;;;;;;15.97;55.66;99738.41;4983422;28;20046;-79
2022/05/03 00:28:12;;;;;;;15.30;11.35;;;;;;;15.98;55.58;99744.63;4992286;28;20050;-80
2022/05/03 00:30:39;;;;;;;12.77;10.82;;;;;;;15.97;55.41;99743.78;4968555;28;20061;-80
2022/05/03 00:33:07;;;;;;;16.00;11.57;;;;;;;15.94;55.53;99745.97;4981301;28;20046;-79
2022/05/03 00:35:34;;;;;;;17.63;11.15;;;;;;;15.88;55.66;99742.16;4984648;28;20054;-80
2022/05/03 00:38:01;;;;;;;14.50;10.77;;;;;;;15.86;55.66;99743.31;4964866;28;20629;-79
2022/05/03 00:40:28;;;;;;;15.38;10.88;;;;;;;15.87;55.37;99750.34;4998375;28;20073;-79
2022/05/03 00:43:32;;;;;;;14.68;10.30;;;;;;;15.82;56.02;99751.72;4978892;28;20499;-79
2022/05/03 00:46:03;;;;;;;15.07;10.90;;;;;;;15.79;55.84;99751.19;4964421;28;20834;-79
2022/05/03 00:48:41;;;;;;;12.38;10.23;;;;;;;15.78;56.26;99750.38;4987364;28;20130;-79
2022/05/03 00:51:10;;;;;;;15.10;10.77;;;;;;;15.78;56.05;99750.38;4968689;28;20046;-79
2022/05/03 00:53:49;;;;;;;14.07;10.55;;;;;;;15.78;56.06;99738.84;4980485;28;20057;-79
2022/05/03 00:56:27;;;;;;;14.45;10.57;;;;;;;15.80;56.10;99748.38;4980556;28;20378;-80
2022/05/03 00:59:00;;;;;;;14.93;10.90;;;;;;;15.81;56.02;99746.50;4984581;28;20042;-79
2022/05/03 01:01:55;;;;;;;15.35;11.05;;;;;;;15.78;56.24;99745.00;4989758;28;20043;-80
2022/05/03 01:04:44;;;;;;;19.20;11.75;;;;;;;15.75;56.04;99749.88;4932809;28;20053;-80
2022/05/03 01:07:16;;;;;;;13.95;11.70;;;;;;;15.74;55.84;99740.16;4962732;28;20051;-79
2022/05/03 01:09:56;;;;;;;14.90;10.77;;;;;;;15.74;56.10;99742.84;4982262;28;20043;-79
2022/05/03 01:12:35;;;;;;;15.68;10.77;;;;;;;15.74;55.92;99738.31;4990774;28;20100;-79
2022/05/03 01:15:09;;;;;;;15.18;11.25;;;;;;;15.77;55.81;99745.16;4977099;28;20050;-80
2022/05/03 01:18:06;;;;;;;16.08;10.73;;;;;;;15.66;56.26;99740.16;4998184;28;20174;-79
2022/05/03 01:20:38;;;;;;;12.90;10.10;;;;;;;15.70;55.96;99737.00;4957850;28;20034;-79
2022/05/03 01:23:44;;;;;;;16.35;10.70;;;;;;;15.68;56.25;99735.47;4987095;28;20049;-80
2022/05/03 01:26:38;;;;;;;15.50;10.63;;;;;;;15.67;56.15;99731.94;4940539;28;20054;-79
2022/05/03 01:29:24;;;;;;;13.32;9.73;;;;;;;15.64;56.29;99735.81;4948203;28;20093;-80
2022/05/03 01:31:56;;;;;;;15.02;10.68;;;;;;;15.64;56.03;99732.28;4953264;28;20077;-79
2022/05/03 01:34:24;;;;;;;15.55;10.25;;;;;;;15.64;55.71;99734.97;4915299;28;20050;-79
2022/05/03 01:37:00;;;;;;;16.42;10.45;;;;;;;15.58;55.99;99730.31;4982547;28;20042;-80
2022/05/03 01:39:46;;;;;;;14.02;10.63;;;;;;;15.57;56.13;99732.16;5000513;28;20144;-79
2022/05/03 01:42:21;;;;;;;15.05;9.52;;;;;;;15.56;56.16;99735.00;4985342;28;20455;-80
2022/05/03 01:45:02;;;;;;;14.23;10.13;;;;;;;15.49;56.45;99731.31;4964300;28;20049;-80
2022/05/03 01:47:59;;;;;;;15.05;10.57;;;;;;;15.48;56.18;99737.69;4962510;28;20043;-79
2022/05/03 01:50:46;;;;;;;13.77;10.25;;;;;;;15.45;56.40;99743.38;4963706;28;20054;-80
2022/05/03 01:53:32;;;;;;;14.52;10.43;;;;;;;15.43;56.37;99737.38;4999286;28;20049;-80
2022/05/03 01:56:30;;;;;;;14.73;10.55;;;;;;;15.38;56.72;99740.53;4965800;28;20046;-80
2022/05/03 01:59:14;;;;;;;16.50;10.98;;;;;;;15.38;56.48;99743.22;4949584;28;20137;-79
2022/05/03 02:01:41;;;;;;;14.07;10.65;;;;;;;15.38;56.28;99736.03;4989075;28;20398;-79
2022/05/03 02:04:14;;;;;;;13.13;10.05;;;;;;;15.37;56.61;99742.38;4988027;28;20593;-79
2022/05/03 02:07:17;;;;;;;13.57;10.75;;;;;;;15.30;57.00;99725.34;4972112;28;20117;-79
2022/05/03 02:10:05;;;;;;;15.07;10.55;;;;;;;15.33;56.67;99730.34;4956397;28;20053;-79
2022/05/03 02:12:33;;;;;;;12.30;9.70;;;;;;;15.31;56.62;99737.69;4957862;28;20042;-79
2022/05/03 02:15:13;;;;;;;15.45;10.65;;;;;;;15.29;56.99;99734.38;4982938;28;20038;-79
2022/05/03 02:18:03;;;;;;;13.75;10.63;;;;;;;15.28;56.77;99735.38;4994128;28;20057;-79
2022/05/03 02:21:02;;;;;;;14.63;10.18;;;;;;;15.23;56.95;99732.34;4975845;28;20042;-79
2022/05/03 02:23:39;;;;;;;15.27;11.20;;;;;;;15.22;56.77;99733.38;4964807;28;20149;-79
2022/05/03 02:26:28;;;;;;;12.82;9.98;;;;;;;15.20;56.92;99732.69;4984305;28;20046;-80
2022/05/03 02:29:02;;;;;;;14.48;10.48;;;;;;;15.16;57.00;99731.34;4967122;28;20544;-79
2022/05/03 02:31:46;;;;;;;13.68;10.93;;;;;;;15.13;57.04;99726.34;4964715;28;20062;-79
2022/05/03 02:34:37;;;;;;;15.93;10.90;;;;;;;15.11;57.26;99726.53;4961052;28;20038;-79
2022/05/03 02:37:31;;;;;;;15.65;10.25;;;;;;;15.09;56.96;99720.50;4950880;28;20054;-80
2022/05/03 02:40:00;;;;;;;13.05;10.30;;;;;;;15.11;56.79;99728.34;4942480;28;20050;-79
2022/05/03 02:42:26;;;;;;;13.55;10.68;;;;;;;15.09;56.87;99722.34;4984890;28;20050;-79
2022/05/03 02:44:56;;;;;;;14.95;10.52;;;;;;;15.09;56.77;99725.84;4993366;28;20062;-79
2022/05/03 02:47:51;;;;;;;14.43;9.93;;;;;;;15.01;57.40;99725.88;4963316;28;20109;-79
2022/05/03 02:50:20;;;;;;;17.10;10.45;;;;;;;15.01;57.01;99727.69;4994535;28;20081;-79
2022/05/03 02:52:58;;;;;;;13.77;9.95;;;;;;;14.99;56.93;99733.22;4986450;28;20042;-80
2022/05/03 02:55:50;;;;;;;13.60;10.07;;;;;;;14.94;57.39;99732.88;4965842;28;20042;-79
2022/05/03 02:58:44;;;;;;;15.35;10.18;;;;;;;14.92;57.26;99738.38;4980727;28;20046;-79
2022/05/03 03:01:48;;;;;;;13.73;9.40;;;;;;;14.90;57.02;99732.34;4960727;28;20045;-79
2022/05/03 03:04:36;;;;;;;13.18;10.05;;;;;;;14.83;57.81;99730.50;4933032;28;20038;-79
2022/05/03 03:07:04;;;;;;;15.63;10.38;;;;;;;14.91;57.33;99728.69;4994414;28;20129;-79
2022/05/03 03:09:44;;;;;;;16.95;11.35;;;;;;;14.88;57.46;99722.81;4972604;28;20128;-79
2022/05/03 03:12:22;;;;;;;15.38;11.10;;;;;;;14.86;57.52;99720.34;4975910;28;20406;-79
2022/05/03 03:15:03;;;;;;;12.52;9.68;;;;;;;14.85;57.61;99720.50;4978185;28;20133;-80
2022/05/03 03:17:34;;;;;;;16.13;10.38;;;;;;;14.82;57.12;99716.31;4954764;28;20733;-78
2022/05/03 03:20:09;;;;;;;18.33;10.90;;;;;;;14.81;57.42;99724.50;4985624;28;20049;-78
2022/05/03 03:22:46;;;;;;;15.10;11.02;;;;;;;14.70;57.91;99723.81;4975019;28;20050;-78
2022/05/03 03:25:21;;;;;;;13.75;10.02;;;;;;;14.69;57.42;99721.31;4999555;28;20114;-75
2022/05/03 03:27:53;;;;;;;15.18;10.90;;;;;;;14.68;57.52;99717.81;4995047;28;20042;-76
2022/05/03 03:30:21;;;;;;;17.30;10.70;;;;;;;14.68;57.25;99716.97;4966665;28;20129;-77
2022/05/03 03:32:50;;;;;;;16.92;10.20;;;;;;;14.62;57.36;99722.97;4983555;28;20050;-77
2022/05/03 03:35:18;;;;;;;14.18;10.60;;;;;;;14.60;57.37;99724.97;4984965;28;20049;-76
2022/05/03 03:37:47;;;;;;;16.75;11.32;;;;;;;14.61;57.27;99721.31;4944300;28;20045;-77
2022/05/03 03:40:15;;;;;;;15.38;10.55;;;;;;;14.61;57.36;99715.97;4986823;28;20050;-77
2022/05/03 03:42:43;;;;;;;15.20;11.10;;;;;;;14.56;57.44;99724.47;4980016;28;20046;-77
2022/05/03 03:45:14;;;;;;;12.48;9.98;;;;;;;14.56;57.19;99718.31;4967002;28;20057;-77
2022/05/03 03:47:43;;;;;;;16.90;11.00;;;;;;;14.52;57.59;99723.09;4977126;28;20093;-77
2022/05/03 03:50:10;;;;;;;14.50;10.55;;;;;;;14.50;57.32;99725.06;4988485;28;20050;-77
2022/05/03 03:52:43;;;;;;;16.02;10.02;;;;;;;14.44;57.94;99721.22;4983846;28;20050;-77
2022/05/03 03:55:11;;;;;;;14.85;10.50;;;;;;;14.43;57.88;99732.94;4951224;28;20042;-76
2022/05/03 03:57:38;;;;;;;11.88;10.50;;;;;;;14.42;57.71;99728.56;4961535;28;20098;-77
2022/05/03 04:00:10;;;;;;;13.10;10.75;;;;;;;14.39;58.27;99731.56;4962675;28;20046;-76
2022/05/03 04:02:39;;;;;;;19.48;11.55;;;;;;;14.41;57.83;99734.09;4899602;28;20050;-76
2022/05/03 04:05:11;;;;;;;17.75;10.95;;;;;;;14.41;58.00;99732.25;4957262;28;20043;-76
2022/05/03 04:07:38;;;;;;;15.60;10.75;;;;;;;14.40;58.28;99735.94;4958237;28;20054;-76
2022/05/03 04:10:05;;;;;;;16.17;11.10;;;;;;;14.39;58.31;99734.25;4961731;28;20526;-76
2022/05/03 04:12:32;;;;;;;16.58;10.85;;;;;;;14.39;58.49;99736.09;4961329;28;20043;-76
2022/05/03 04:14:58;;;;;;;19.23;12.20;;;;;;;14.41;58.64;99742.94;4957706;28;20542;-76
2022/05/03 04:17:25;;;;;;;15.93;10.48;;;;;;;14.42;58.63;99739.25;4940443;28;20128;-76
2022/05/03 04:19:52;;;;;;;17.13;11.23;;;;;;;14.42;58.55;99743.75;4959380;28;20057;-76
2022/05/03 04:22:28;;;;;;;16.27;10.80;;;;;;;14.39;58.94;99736.91;4942665;28;20487;-75
2022/05/03 04:24:55;;;;;;;17.80;11.82;;;;;;;14.40;58.74;99743.09;4955466;28;20055;-77
2022/05/03 04:27:23;;;;;;;17.80;11.30;;;;;;;14.38;59.25;99748.63;4984200;28;20038;-76
2022/05/03 04:29:50;;;;;;;22.38;11.65;;;;;;;14.40;58.81;99745.75;4982845;28;20049;-76
2022/05/03 04:32:18;;;;;;;14.65;11.70;;;;;;;14.38;59.28;99750.44;4976891;28;20060;-77
2022/05/03 04:34:45;;;;;;;18.65;12.82;;;;;;;14.40;59.36;99748.44;4966212;28;20069;-76
2022/05/03 04:37:12;;;;;;;19.23;12.88;;;;;;;14.48;59.30;99765.34;4983686;28;20046;-77
2022/05/03 04:39:39;;;;;;;17.50;12.27;;;;;;;14.50;59.03;99762.47;4979535;28;20142;-77
2022/05/03 04:42:06;;;;;;;20.15;12.10;;;;;;;14.51;59.45;99754.31;4981359;28;20046;-76
2022/05/03 04:44:33;;;;;;;19.33;11.75;;;;;;;14.54;59.23;99759.38;4981646;28;20073;-76
2022/05/03 04:47:02;;;;;;;15.80;11.60;;;;;;;14.53;59.59;99764.88;4965646;28;20054;-76
2022/05/03 04:49:29;;;;;;;17.60;11.48;;;;;;;14.56;59.54;99761.06;4977520;28;20108;-75
2022/05/03 04:51:56;;;;;;;15.93;11.70;;;;;;;14.54;59.51;99770.06;4980386;28;20066;-75
2022/05/03 04:54:23;;;;;;;18.58;11.27;;;;;;;14.55;59.61;99762.88;4981167;28;20069;-77
2022/05/03 04:56:54;;;;;;;16.45;11.32;;;;;;;14.51;59.66;99766.84;4980731;28;20075;-77
2022/05/03 04:59:23;;;;;;;19.65;12.45;;;;;;;14.52;59.62;99774.69;4964672;28;20594;-75
2022/05/03 05:01:49;;;;;;;17.30;10.80;;;;;;;14.52;59.58;99769.34;4986705;28;20042;-75
2022/05/03 05:04:16;;;;;;;12.85;10.45;;;;;;;14.57;59.39;99765.38;4963381;28;20405;-75
2022/05/03 05:06:43;;;;;;;18.05;11.18;;;;;;;14.61;59.30;99772.09;4984370;28;20729;-76
2022/05/03 05:09:10;;;;;;;16.00;10.57;;;;;;;14.65;59.44;99770.75;4952802;28;20038;-76
2022/05/03 05:11:36;;;;;;;15.93;11.10;;;;;;;14.70;59.35;99771.91;4967375;28;20050;-76
2022/05/03 05:14:03;;;;;;;16.33;10.70;;;;;;;14.74;59.29;99769.78;4965052;28;20052;-76
2022/05/03 05:16:30;;;;;;;15.98;11.40;;;;;;;14.79;58.91;99764.78;4962928;28;20557;-75
2022/05/03 05:18:58;;;;;;;15.93;11.70;;;;;;;14.83;59.42;99760.75;4982653;28;20126;-76
2022/05/03 05:21:24;;;;;;;16.25;11.57;;;;;;;14.86;59.51;99762.28;4987812;28;20840;-77
2022/05/03 05:23:52;;;;;;;16.98;11.43;;;;;;;14.92;59.49;99766.97;4977443;28;20129;-75
2022/05/03 05:26:18;;;;;;;19.70;11.73;;;;;;;14.94;59.52;99759.63;4980357;28;20366;-74
2022/05/03 05:28:45;;;;;;;18.40;12.73;;;;;;;14.95;59.47;99762.09;4981407;28;20518;-76
2022/05/03 05:31:12;;;;;;;23.23;12.13;;;;;;;14.96;59.51;99761.13;4973019;28;20050;-75
2022/05/03 05:33:39;;;;;;;17.42;12.40;;;;;;;14.95;59.67;99767.44;4987610;28;20054;-75
2022/05/03 05:36:06;;;;;;;15.52;11.93;;;;;;;14.94;59.64;99764.97;4986539;28;20058;-76
2022/05/03 05:38:32;;;;;;;19.13;11.98;;;;;;;14.98;59.50;99763.59;4986929;28;20042;-74
2022/05/03 05:40:59;;;;;;;20.95;12.88;;;;;;;14.98;59.64;99768.94;4986593;28;20046;-75
2022/05/03 05:43:26;;;;;;;22.15;12.93;;;;;;;15.08;59.74;99766.97;4970951;28;21090;-75
2022/05/03 05:45:53;;;;;;;17.15;12.43;;;;;;;15.15;59.66;99769.81;4983729;28;20046;-74
2022/05/03 05:48:20;;;;;;;19.55;12.18;;;;;;;15.18;59.72;99775.66;4971272;28;20379;-75
2022/05/03 05:50:46;;;;;;;17.23;11.80;;;;;;;15.22;59.75;99768.16;4986660;28;20042;-77
2022/05/03 05:53:31;;;;;;;18.88;12.45;;;;;;;15.24;60.05;99778.66;4967883;28;20132;-77
2022/05/03 05:55:59;;;;;;;17.05;12.15;;;;;;;15.27;59.94;99779.19;4963274;28;20551;-77
2022/05/03 05:58:26;;;;;;;14.80;11.10;;;;;;;15.32;60.04;99784.03;4986158;28;20041;-77
2022/05/03 06:00:53;;;;;;;14.93;11.30;;;;;;;15.34;60.04;99779.31;4968679;28;20081;-74
2022/05/03 06:03:22;;;;;;;20.08;12.23;;;;;;;15.40;59.73;99779.50;4983557;28;20058;-76
2022/05/03 06:05:49;;;;;;;20.23;12.32;;;;;;;15.45;59.87;99783.53;5000500;28;20410;-75
2022/05/03 06:08:16;;;;;;;19.45;12.15;;;;;;;15.50;59.86;99775.81;4971223;28;20030;-75
2022/05/03 06:10:42;;;;;;;20.70;13.70;;;;;;;15.47;60.00;99774.31;4984620;28;20494;-75
2022/05/03 06:13:10;;;;;;;16.55;11.43;;;;;;;15.55;60.16;99781.50;4967348;28;20065;-75
2022/05/03 06:15:37;;;;;;;22.88;14.02;;;;;;;15.57;60.19;99780.34;4970271;28;20078;-75
2022/05/03 06:18:06;;;;;;;21.83;13.20;;;;;;;15.67;60.04;99779.28;4987409;28;20069;-76
2022/05/03 06:20:33;;;;;;;19.58;12.05;;;;;;;15.68;60.26;99779.13;4962137;28;20046;-76
2022/05/03 06:23:00;;;;;;;23.85;13.80;;;;;;;15.75;60.25;99782.84;4966918;28;20065;-75
2022/05/03 06:25:27;;;;;;;27.13;13.80;;;;;;;15.82;60.11;99780.31;4986212;28;20406;-75
2022/05/03 06:27:53;;;;;;;19.25;12.60;;;;;;;15.75;60.33;99782.84;4994730;28;20053;-75
2022/05/03 06:30:20;;;;;;;22.23;12.48;;;;;;;15.84;59.94;99780.97;4984424;28;20042;-75
2022/05/03 06:32:47;;;;;;;23.52;12.48;;;;;;;15.85;59.86;99788.00;4985668;28;20117;-75
2022/05/03 06:35:14;;;;;;;20.05;12.90;;;;;;;15.82;60.10;99783.84;4985713;28;20050;-76
2022/05/03 06:37:42;;;;;;;22.27;12.80;;;;;;;15.84;60.20;99791.69;4975970;28;20046;-75
2022/05/03 06:40:10;;;;;;;18.90;13.27;;;;;;;15.77;60.40;99788.00;4983031;28;20065;-75
2022/05/03 06:42:38;;;;;;;19.83;12.00;;;;;;;15.81;60.28;99782.16;5003014;28;20066;-76
2022/05/03 06:45:07;;;;;;;20.92;12.63;;;;;;;15.81;59.96;99779.47;4984263;28;20054;-75
2022/05/03 06:47:34;;;;;;;17.70;12.77;;;;;;;15.84;59.64;99784.47;4984637;28;20389;-75
2022/05/03 06:50:01;;;;;;;18.08;12.25;;;;;;;15.92;59.98;99782.78;4987398;28;20386;-76
2022/05/03 06:52:31;;;;;;;17.88;13.23;;;;;;;15.89;60.06;99778.63;4977706;28;20453;-75
2022/05/03 06:54:57;;;;;;;17.27;12.48;;;;;;;15.93;60.20;99787.16;4955506;28;20050;-75
2022/05/03 06:57:24;;;;;;;18.70;12.90;;;;;;;15.95;60.33;99782.44;4951631;28;20045;-76
2022/05/03 06:59:51;;;;;;;20.10;13.15;;;;;;;16.04;60.17;99786.78;4980139;28;20054;-76
2022/05/03 07:02:18;;;;;;;20.77;13.75;;;;;;;16.05;60.58;99783.94;4977005;28;20054;-76
2022/05/03 07:04:46;;;;;;;21.73;13.00;;;;;;;16.14;59.88;99784.75;4985751;28;20054;-76
2022/05/03 07:07:14;;;;;;;21.10;13.60;;;;;;;16.21;59.68;99784.88;4976541;28;20050;-75
2022/05/03 07:09:41;;;;;;;20.65;13.05;;;;;;;16.18;59.70;99786.06;5000483;28;20044;-75
2022/05/03 07:12:09;;;;;;;19.27;13.27;;;;;;;16.19;60.02;99790.41;4952157;28;20051;-76
2022/05/03 07:14:36;;;;;;;18.77;13.05;;;;;;;16.23;59.82;99790.88;4985330;28;20078;-75
2022/05/03 07:17:04;;;;;;;19.80;13.60;;;;;;;16.24;60.29;99792.56;4983004;28;20042;-75
2022/05/03 07:25:04;;;;;;;22.67;13.40;;;;;;;16.33;60.61;99796.03;4948962;28;20046;-76
2022/05/03 07:27:31;;;;;;;19.15;13.15;;;;;;;16.37;60.60;99798.22;4979349;28;20051;-77
2022/05/03 07:29:57;;;;;;;21.52;14.55;;;;;;;16.38;60.95;99797.19;4983057;28;20054;-75
2022/05/03 07:32:25;;;;;;;21.88;13.80;;;;;;;16.45;60.77;99794.66;4985773;28;20042;-75
2022/05/03 07:34:52;;;;;;;24.13;14.45;;;;;;;16.59;59.92;99795.75;4981855;28;20410;-77
2022/05/03 07:37:19;;;;;;;20.92;14.85;;;;;;;16.50;60.40;99801.16;4949811;28;20046;-75
2022/05/03 07:39:45;;;;;;;19.65;14.57;;;;;;;16.57;60.43;99801.31;4981976;28;20052;-76
2022/05/03 07:42:13;;;;;;;22.90;14.10;;;;;;;16.61;60.25;99797.28;4988687;28;20054;-75
2022/05/03 07:44:40;;;;;;;20.25;14.25;;;;;;;16.67;59.93;99799.25;4980878;28;20048;-74
2022/05/03 07:47:06;;;;;;;24.80;13.82;;;;;;;16.63;60.46;99800.59;4984514;28;20378;-76
2022/05/03 07:49:33;;;;;;;19.63;14.13;;;;;;;16.77;59.49;99803.56;4985203;28;20054;-76
2022/05/03 07:52:00;;;;;;;18.92;13.05;;;;;;;16.72;59.54;99806.75;4982650;28;20173;-76
2022/05/03 07:54:28;;;;;;;18.58;12.27;;;;;;;16.75;59.49;99809.09;4986737;28;20085;-76
2022/05/03 07:56:55;;;;;;;16.77;11.73;;;;;;;16.76;59.46;99810.75;4962674;28;20045;-76
2022/05/03 07:59:25;;;;;;;19.42;11.73;;;;;;;16.80;59.71;99812.09;4948837;28;20046;-76
2022/05/03 08:01:53;;;;;;;15.27;10.73;;;;;;;16.83;59.13;99811.75;4964400;28;20398;-76
2022/05/03 08:04:20;;;;;;;16.17;10.18;;;;;;;16.88;58.67;99812.03;4980705;28;20057;-76
2022/05/03 08:06:46;;;;;;;18.25;10.85;;;;;;;16.88;59.47;99814.72;4949707;28;20470;-76
2022/05/03 08:09:13;;;;;;;17.85;11.68;;;;;;;16.93;59.24;99808.84;4968790;28;20043;-75
2022/05/03 08:11:41;;;;;;;15.13;10.35;;;;;;;16.99;58.87;99813.47;4985517;28;20092;-75
2022/05/03 08:14:08;;;;;;;16.25;11.18;;;;;;;16.95;58.91;99820.22;4971978;28;20038;-76
2022/05/03 08:16:35;;;;;;;14.55;11.18;;;;;;;16.90;59.14;99810.03;4981591;28;21930;-76
2022/05/03 08:19:02;;;;;;;15.73;11.35;;;;;;;17.00;58.49;99817.03;4952572;28;20043;-77
2022/05/03 08:21:32;;;;;;;15.27;11.50;;;;;;;17.10;58.53;99815.78;4984412;28;20050;-77
2022/05/03 08:23:59;;;;;;;20.17;12.48;;;;;;;17.14;58.36;99822.44;4981848;28;20326;-76
2022/05/03 08:26:26;;;;;;;17.55;10.18;;;;;;;17.02;58.93;99825.69;4995880;28;20057;-75
2022/05/03 08:28:53;;;;;;;15.75;12.30;;;;;;;17.19;59.19;99818.38;4984115;28;20058;-77
2022/05/03 08:31:19;;;;;;;20.48;11.80;;;;;;;17.34;57.90;99816.59;4981030;28;20072;-77
2022/05/03 08:33:47;;;;;;;15.18;10.15;;;;;;;17.32;57.69;99815.94;4967192;28;20506;-75
2022/05/03 08:36:14;;;;;;;16.77;10.35;;;;;;;17.27;58.71;99821.81;4983584;28;20042;-76
2022/05/03 08:42:01;;;;;;;10.73;8.50;;;;;;;17.27;58.12;99821.81;4942022;28;20394;-76
2022/05/03 08:44:32;;;;;;;14.15;9.23;;;;;;;17.20;58.48;99812.84;4990355;28;20097;-76
2022/05/03 08:47:00;;;;;;;12.88;8.88;;;;;;;17.23;59.01;99825.06;4982289;28;20405;-84
2022/05/03 08:49:55;;;;;;;10.18;9.07;;;;;;;17.19;57.43;99816.53;4987170;28;20053;-86
2022/05/03 08:52:24;;;;;;;9.05;7.65;;;;;;;17.33;58.26;99825.66;4956013;28;20058;-86
2022/05/03 08:54:50;;;;;;;11.15;7.78;;;;;;;17.29;58.03;99825.19;4965320;28;20050;-84
2022/05/03 08:57:18;;;;;;;11.48;8.18;;;;;;;17.34;58.22;99816.59;4963818;28;20042;-83
2022/05/03 08:59:50;;;;;;;9.57;7.50;;;;;;;17.35;57.20;99818.25;4938256;28;20047;-83
2022/05/03 09:02:17;;;;;;;9.82;7.88;;;;;;;17.49;57.29;99819.31;4970495;28;20062;-83
2022/05/03 09:04:47;;;;;;;10.88;8.07;;;;;;;17.45;56.48;99821.53;4987231;28;20042;-83
2022/05/03 09:07:20;;;;;;;12.27;8.18;;;;;;;17.43;56.72;99820.03;4979644;28;20058;-82
2022/05/03 09:09:48;;;;;;;9.88;8.77;;;;;;;17.50;56.99;99816.47;4971444;28;20042;-82
2022/05/03 09:12:22;;;;;;;10.63;8.48;;;;;;;17.50;57.21;99819.16;4970230;28;20608;-84
2022/05/03 09:14:49;;;;;;;12.02;8.63;;;;;;;17.41;57.63;99819.41;4988398;28;20121;-84
2022/05/03 09:17:33;;;;;;;14.07;8.25;;;;;;;17.28;57.32;99820.84;5003218;28;20050;-85
2022/05/03 09:23:46;;;;;;;15.68;9.20;;;;;;;17.52;57.47;99819.78;4991439;28;20581;-84
2022/05/03 09:25:37;;;;;;;11.30;8.15;;;;;;;17.54;57.51;99820.44;4922496;28;20054;-82
2022/05/03 09:28:07;;;;;;;11.10;7.80;;;;;;;17.46;56.83;99823.22;4988592;28;20447;-83
2022/05/03 09:30:33;;;;;;;13.23;8.15;;;;;;;17.63;56.84;99815.00;4977521;28;20482;-84
2022/05/03 09:33:00;;;;;;;11.07;7.95;;;;;;;17.64;56.78;99825.56;4968473;28;20043;-84
2022/05/03 09:35:34;;;;;;;9.77;7.87;;;;;;;17.67;56.96;99808.25;5002170;28;20457;-84
2022/05/03 09:38:03;;;;;;;15.10;8.38;;;;;;;17.69;56.52;99811.59;4983595;28;20042;-84
2022/05/03 09:40:43;;;;;;;10.30;7.13;;;;;;;17.63;56.68;99812.31;4984413;28;20062;-84
2022/05/03 09:43:11;;;;;;;11.23;7.05;;;;;;;17.73;55.87;99815.56;4985238;28;20046;-86
2022/05/03 09:45:38;;;;;;;10.88;7.43;;;;;;;17.66;56.32;99812.78;4970369;28;20486;-86
2022/05/03 09:48:05;;;;;;;9.07;7.22;;;;;;;17.80;56.83;99813.84;4985871;28;20150;-83
2022/05/03 09:50:32;;;;;;;9.07;7.63;;;;;;;17.86;56.06;99813.16;4970300;28;20050;-82
2022/05/03 09:53:08;;;;;;;9.80;8.00;;;;;;;17.77;55.69;99820.41;4985881;28;20584;-83
2022/05/03 09:55:40;;;;;;;9.30;7.95;;;;;;;17.87;56.65;99811.28;4985194;28;20054;-86
2022/05/03 09:58:10;;;;;;;12.20;8.45;;;;;;;17.93;56.51;99815.91;4967041;28;20048;-88
2022/05/03 10:00:42;;;;;;;11.50;8.15;;;;;;;17.95;56.14;99813.88;4986631;28;20038;-86
2022/05/03 10:03:10;;;;;;;8.57;6.85;;;;;;;18.12;56.73;99803.81;4985324;28;20046;-88
2022/05/03 10:05:39;;;;;;;13.23;7.50;;;;;;;18.21;55.48;99802.66;4979274;28;20046;-89
2022/05/03 10:08:09;;;;;;;9.45;6.75;;;;;;;18.28;56.29;99805.47;4985586;28;20057;-87
2022/05/03 10:10:44;;;;;;;11.98;7.80;;;;;;;18.30;55.93;99793.50;4988309;28;20130;-87
2022/05/03 10:13:13;;;;;;;9.05;7.43;;;;;;;18.33;54.87;99793.13;4986904;28;20050;-87
2022/05/03 10:21:28;;;;;;;8.93;6.90;;;;;;;18.30;54.41;99793.50;4909386;28;20053;-87
2022/05/03 10:24:02;;;;;;;14.57;7.57;;;;;;;18.31;53.78;99792.47;5001840;28;20042;-81
2022/05/03 10:26:56;;;;;;;9.63;7.43;;;;;;;18.18;53.53;99784.22;4981890;28;20046;-84
2022/05/03 10:29:25;;;;;;;8.07;6.22;;;;;;;18.35;54.25;99782.19;4938462;28;20042;-85
2022/05/03 10:31:57;;;;;;;10.52;7.07;;;;;;;18.41;54.32;99773.38;4969226;28;20125;-85
2022/05/03 10:34:48;;;;;;;9.90;6.70;;;;;;;18.18;53.55;99782.38;4953730;28;20038;-84
2022/05/03 10:37:36;;;;;;;9.38;7.00;;;;;;;18.16;52.29;99770.97;4945648;28;20092;-84
2022/05/03 10:40:10;;;;;;;8.60;6.43;;;;;;;18.28;53.01;99765.13;4950240;28;20121;-89
2022/05/03 10:42:36;;;;;;;7.00;6.05;;;;;;;18.25;53.54;99762.84;4937917;28;20104;-86
2022/05/03 10:45:17;;;;;;;10.35;7.75;;;;;;;18.26;53.19;99768.00;4984544;28;20122;-85
2022/05/03 10:47:53;;;;;;;10.13;7.30;;;;;;;18.13;52.83;99763.28;4969578;28;20494;-85
2022/05/03 10:50:22;;;;;;;8.85;6.75;;;;;;;18.30;53.88;99760.41;4963304;28;20058;-85
2022/05/03 10:52:55;;;;;;;8.05;6.43;;;;;;;18.18;53.89;99757.34;5001353;28;20070;-81
2022/05/03 10:55:29;;;;;;;8.90;6.65;;;;;;;18.09;52.50;99755.78;4979695;28;20773;-88
2022/05/03 10:58:15;;;;;;;9.95;6.22;;;;;;;18.11;52.55;99754.56;4967019;28;20909;-86
2022/05/03 11:01:03;;;;;;;7.85;6.38;;;;;;;18.11;52.77;99751.88;4962213;28;20135;-84
2022/05/03 11:04:00;;;;;;;8.02;6.35;;;;;;;18.03;53.15;99746.63;4961733;28;20524;-83
2022/05/03 11:06:27;;;;;;;8.07;6.00;;;;;;;18.28;52.31;99735.56;4937557;28;20545;-86
2022/05/03 11:08:57;;;;;;;9.10;6.10;;;;;;;18.29;50.99;99738.06;4967427;28;20073;-82
2022/05/03 11:11:42;;;;;;;10.57;5.78;;;;;;;18.22;50.65;99729.09;4969472;28;20161;-86
2022/05/03 11:14:18;;;;;;;9.73;5.72;;;;;;;18.27;51.27;99725.81;4975227;28;20043;-82
2022/05/03 11:17:04;;;;;;;7.25;5.78;;;;;;;18.40;49.71;99721.44;5000470;28;20051;-84
2022/05/03 11:19:33;;;;;;;7.90;6.15;;;;;;;18.52;50.00;99729.88;4982770;28;20039;-87
2022/05/03 11:22:00;;;;;;;7.07;5.57;;;;;;;18.63;50.45;99715.91;4969983;28;20042;-85
2022/05/03 11:24:32;;;;;;;6.50;5.15;;;;;;;18.70;48.68;99717.81;4983411;28;20465;-88
2022/05/03 11:27:05;;;;;;;8.30;5.72;;;;;;;18.82;48.38;99716.31;4986079;28;20390;-89
2022/05/03 11:29:34;;;;;;;6.30;5.03;;;;;;;19.05;46.92;99718.81;4984178;28;20054;-89
2022/05/03 11:32:06;;;;;;;6.10;5.20;;;;;;;19.02;47.38;99711.97;4979546;28;20134;-88
2022/05/03 11:34:33;;;;;;;8.10;5.10;;;;;;;19.00;46.66;99699.72;4970092;28;20125;-85
2022/05/03 11:37:01;;;;;;;6.35;4.93;;;;;;;19.06;46.94;99699.78;4934541;28;20042;-84
2022/05/03 11:39:29;;;;;;;6.53;5.82;;;;;;;19.11;46.60;99703.75;4959629;28;20109;-76
2022/05/03 11:41:56;;;;;;;5.97;5.38;;;;;;;19.11;46.82;99696.53;4948923;28;20059;-78
2022/05/03 11:44:26;;;;;;;6.13;5.07;;;;;;;19.12;46.39;99690.09;4959573;28;20057;-80
2022/05/03 11:46:55;;;;;;;9.02;5.75;;;;;;;19.13;46.18;99690.94;4965878;28;20061;-79
2022/05/03 11:49:23;;;;;;;5.35;4.75;;;;;;;19.14;43.69;99701.50;4953656;28;20146;-79
2022/05/03 11:57:31;;;;;;;6.15;4.72;;;;;;;19.29;43.85;99691.47;4944907;28;20053;-76
2022/05/03 11:59:59;;;;;;;5.35;4.80;;;;;;;19.42;44.38;99692.63;4980611;28;20045;-78
2022/05/03 12:02:30;;;;;;;5.43;4.45;;;;;;;19.38;44.22;99683.25;4944933;28;20363;-78
2022/05/03 12:05:16;;;;;;;5.43;4.80;;;;;;;19.31;42.33;99680.53;4943194;28;20065;-78
2022/05/03 12:07:52;;;;;;;4.90;4.47;;;;;;;19.39;42.09;99677.69;4986268;28;20049;-78